createdAt,value
2022-08-17T00:00:00.495Z,21.70
2022-08-17T00:01:02.714Z,21.70
2022-08-17T00:02:00.276Z,21.70
2022-08-17T00:03:00.236Z,21.70
2022-08-17T00:04:00.266Z,21.70
2022-08-17T00:05:00.264Z,21.70
2022-08-17T00:06:03.437Z,21.70
2022-08-17T00:07:00.258Z,21.70
2022-08-17T00:08:00.426Z,28.90
2022-08-17T00:09:02.347Z,28.90
2022-08-17T00:10:00.255Z,28.90
2022-08-17T00:11:01.117Z,28.90
2022-08-17T00:12:51.162Z,28.90
2022-08-17T00:13:04.209Z,28.90
2022-08-17T00:14:03.946Z,28.90
2022-08-17T00:15:00.279Z,28.90
2022-08-17T00:16:02.498Z,28.90
2022-08-17T00:17:00.288Z,28.90
2022-08-17T00:18:00.319Z,28.90
2022-08-17T00:19:08.309Z,28.90
2022-08-17T00:20:00.298Z,28.90
2022-08-17T00:21:02.182Z,28.90
2022-08-17T00:22:32.472Z,28.90
2022-08-17T00:23:02.710Z,28.90
2022-08-17T00:24:00.327Z,28.90
2022-08-17T00:25:00.357Z,28.90
2022-08-17T00:26:00.691Z,28.90
2022-08-17T00:27:00.261Z,28.90
2022-08-17T00:28:00.368Z,28.90
2022-08-17T00:29:00.341Z,28.90
2022-08-17T00:30:00.461Z,28.90
2022-08-17T00:31:00.875Z,28.90
2022-08-17T00:32:00.632Z,28.90
2022-08-17T00:33:12.121Z,28.90
2022-08-17T00:34:00.645Z,28.90
2022-08-17T00:35:03.029Z,28.90
2022-08-17T00:36:00.757Z,28.90
2022-08-17T00:37:00.270Z,28.90
2022-08-17T00:38:00.347Z,40.30
2022-08-17T00:39:00.266Z,40.30
2022-08-17T00:40:00.453Z,40.30
2022-08-17T00:41:03.305Z,40.30
2022-08-17T00:42:00.314Z,40.30
2022-08-17T00:43:08.159Z,40.30
2022-08-17T00:44:01.622Z,40.30
2022-08-17T00:45:00.459Z,40.30
2022-08-17T00:46:01.895Z,40.30
2022-08-17T00:47:00.276Z,40.30
2022-08-17T00:48:00.262Z,40.30
2022-08-17T00:49:00.331Z,40.30
2022-08-17T00:50:00.865Z,40.30
2022-08-17T00:51:01.271Z,40.30
2022-08-17T00:52:04.622Z,40.30
2022-08-17T00:53:00.636Z,40.30
2022-08-17T00:54:05.997Z,40.30
2022-08-17T00:55:00.840Z,40.30
2022-08-17T00:56:02.173Z,40.30
2022-08-17T00:57:03.809Z,40.30
2022-08-17T00:58:02.129Z,40.30
2022-08-17T00:59:01.541Z,40.30
2022-08-17T01:00:04.154Z,40.30
2022-08-17T01:01:00.399Z,40.30
2022-08-17T01:02:00.692Z,40.30
2022-08-17T01:03:03.835Z,40.30
2022-08-17T01:04:00.657Z,40.30
2022-08-17T01:05:00.533Z,40.30
2022-08-17T01:06:01.412Z,40.30
2022-08-17T01:07:00.627Z,40.30
2022-08-17T01:08:01.071Z,37.70
2022-08-17T01:09:00.955Z,37.70
2022-08-17T01:10:02.268Z,37.70
2022-08-17T01:11:01.983Z,37.70
2022-08-17T01:12:00.502Z,37.70
2022-08-17T01:13:01.100Z,37.70
2022-08-17T01:14:00.285Z,37.70
2022-08-17T01:15:00.288Z,37.70
2022-08-17T01:16:03.273Z,37.70
2022-08-17T01:17:00.391Z,37.70
2022-08-17T01:18:00.471Z,37.70
2022-08-17T01:19:02.276Z,37.70
2022-08-17T01:20:00.495Z,37.70
2022-08-17T01:21:02.972Z,37.70
2022-08-17T01:22:04.130Z,37.70
2022-08-17T01:23:00.399Z,37.70
2022-08-17T01:24:00.386Z,37.70
2022-08-17T01:25:01.353Z,37.70
2022-08-17T01:26:00.986Z,37.70
2022-08-17T01:27:01.335Z,37.70
2022-08-17T01:28:00.709Z,37.70
2022-08-17T01:29:01.726Z,37.70
2022-08-17T01:30:02.933Z,37.70
2022-08-17T01:31:02.072Z,37.70
2022-08-17T01:32:01.943Z,37.70
2022-08-17T01:33:00.289Z,37.70
2022-08-17T01:34:01.895Z,37.70
2022-08-17T01:35:00.560Z,37.70
2022-08-17T01:36:00.471Z,37.70
2022-08-17T01:37:00.496Z,37.70
2022-08-17T01:38:00.282Z,36.00
2022-08-17T01:39:00.686Z,36.00
2022-08-17T01:40:05.231Z,36.00
2022-08-17T01:41:03.357Z,36.00
2022-08-17T01:42:06.523Z,36.00
2022-08-17T01:43:07.393Z,36.00
2022-08-17T01:44:02.815Z,36.00
2022-08-17T01:45:03.438Z,36.00
2022-08-17T01:46:03.539Z,36.00
2022-08-17T01:47:00.277Z,36.00
2022-08-17T01:48:00.273Z,36.00
2022-08-17T01:49:00.681Z,36.00
2022-08-17T01:50:05.042Z,36.00
2022-08-17T01:51:00.402Z,36.00
2022-08-17T01:52:04.967Z,36.00
2022-08-17T01:53:03.137Z,36.00
2022-08-17T01:54:02.717Z,36.00
2022-08-17T01:55:00.404Z,36.00
2022-08-17T01:56:04.287Z,36.00
2022-08-17T01:57:00.296Z,36.00
2022-08-17T01:58:01.319Z,36.00
2022-08-17T01:59:00.425Z,36.00
2022-08-17T02:00:00.657Z,36.00
2022-08-17T02:01:01.465Z,36.00
2022-08-17T02:02:00.275Z,36.00
2022-08-17T02:03:00.285Z,36.00
2022-08-17T02:04:01.900Z,36.00
2022-08-17T02:05:00.332Z,36.00
2022-08-17T02:06:00.720Z,36.00
2022-08-17T02:07:00.545Z,36.00
2022-08-17T02:08:00.969Z,35.30
2022-08-17T02:09:02.614Z,35.30
2022-08-17T02:10:00.277Z,35.30
2022-08-17T02:11:01.093Z,35.30
2022-08-17T02:12:37.793Z,35.30
2022-08-17T02:13:01.312Z,35.30
2022-08-17T02:14:03.244Z,35.30
2022-08-17T02:15:00.528Z,35.30
2022-08-17T02:16:00.292Z,35.30
2022-08-17T02:17:00.442Z,35.30
2022-08-17T02:18:01.082Z,35.30
2022-08-17T02:19:00.315Z,35.30
2022-08-17T02:20:00.329Z,35.30
2022-08-17T02:21:00.313Z,35.30
2022-08-17T02:22:00.270Z,35.30
2022-08-17T02:23:01.118Z,35.30
2022-08-17T02:24:00.627Z,35.30
2022-08-17T02:25:02.173Z,35.30
2022-08-17T02:26:00.274Z,35.30
2022-08-17T02:27:00.331Z,35.30
2022-08-17T02:28:00.258Z,35.30
2022-08-17T02:29:00.300Z,35.30
2022-08-17T02:30:00.285Z,35.30
2022-08-17T02:31:04.358Z,35.30
2022-08-17T02:32:00.421Z,35.30
2022-08-17T02:33:00.258Z,35.30
2022-08-17T02:34:03.675Z,35.30
2022-08-17T02:35:00.507Z,35.30
2022-08-17T02:36:00.400Z,35.30
2022-08-17T02:37:00.242Z,35.30
2022-08-17T02:38:00.608Z,36.60
2022-08-17T02:39:01.735Z,36.60
2022-08-17T02:40:01.136Z,36.60
2022-08-17T02:41:00.276Z,36.60
2022-08-17T02:42:00.960Z,36.60
2022-08-17T02:43:00.261Z,36.60
2022-08-17T02:44:00.375Z,36.60
2022-08-17T02:45:00.910Z,36.60
2022-08-17T02:46:00.268Z,36.60
2022-08-17T02:47:00.344Z,36.60
2022-08-17T02:48:00.303Z,36.60
2022-08-17T02:49:00.301Z,36.60
2022-08-17T02:50:00.424Z,36.60
2022-08-17T02:51:00.356Z,36.60
2022-08-17T02:52:01.403Z,36.60
2022-08-17T02:53:02.300Z,36.60
2022-08-17T02:54:35.580Z,36.60
2022-08-17T02:55:00.274Z,36.60
2022-08-17T02:56:00.277Z,36.60
2022-08-17T02:57:00.321Z,36.60
2022-08-17T02:58:00.532Z,36.60
2022-08-17T02:59:00.262Z,36.60
2022-08-17T03:00:00.314Z,36.60
2022-08-17T03:01:00.280Z,36.60
2022-08-17T03:02:02.674Z,36.60
2022-08-17T03:03:01.378Z,36.60
2022-08-17T03:04:00.271Z,36.60
2022-08-17T03:05:00.269Z,36.60
2022-08-17T03:06:00.765Z,36.60
2022-08-17T03:07:00.312Z,36.60
2022-08-17T03:08:00.505Z,37.60
2022-08-17T03:09:00.334Z,37.60
2022-08-17T03:10:00.275Z,37.60
2022-08-17T03:11:00.247Z,37.60
2022-08-17T03:12:09.044Z,37.60
2022-08-17T03:13:00.270Z,37.60
2022-08-17T03:14:00.296Z,37.60
2022-08-17T03:15:03.855Z,37.60
2022-08-17T03:16:00.248Z,37.60
2022-08-17T03:17:00.408Z,37.60
2022-08-17T03:18:01.126Z,37.60
2022-08-17T03:19:00.306Z,37.60
2022-08-17T03:20:00.633Z,37.60
2022-08-17T03:21:00.664Z,37.60
2022-08-17T03:22:35.310Z,37.60
2022-08-17T03:23:02.702Z,37.60
2022-08-17T03:24:00.292Z,37.60
2022-08-17T03:25:00.283Z,37.60
2022-08-17T03:26:00.278Z,37.60
2022-08-17T03:27:00.263Z,37.60
2022-08-17T03:28:00.323Z,37.60
2022-08-17T03:29:00.249Z,37.60
2022-08-17T03:30:00.292Z,37.60
2022-08-17T03:31:00.339Z,37.60
2022-08-17T03:32:08.956Z,37.60
2022-08-17T03:33:01.307Z,37.60
2022-08-17T03:34:00.267Z,37.60
2022-08-17T03:35:00.298Z,37.60
2022-08-17T03:36:00.270Z,37.60
2022-08-17T03:37:00.290Z,37.60
2022-08-17T03:38:01.198Z,42.00
2022-08-17T03:39:00.260Z,42.00
2022-08-17T03:40:00.917Z,42.00
2022-08-17T03:41:00.343Z,42.00
2022-08-17T03:42:05.830Z,42.00
2022-08-17T03:43:04.696Z,42.00
2022-08-17T03:44:00.308Z,42.00
2022-08-17T03:45:00.884Z,42.00
2022-08-17T03:46:01.581Z,42.00
2022-08-17T03:47:00.304Z,42.00
2022-08-17T03:48:00.274Z,42.00
2022-08-17T03:49:00.701Z,42.00
2022-08-17T03:50:00.438Z,42.00
2022-08-17T03:51:00.407Z,42.00
2022-08-17T03:52:00.288Z,42.00
2022-08-17T03:53:02.962Z,42.00
2022-08-17T03:54:00.501Z,42.00
2022-08-17T03:55:00.289Z,42.00
2022-08-17T03:56:01.429Z,42.00
2022-08-17T03:57:02.498Z,42.00
2022-08-17T03:58:00.259Z,42.00
2022-08-17T03:59:00.268Z,42.00
2022-08-17T04:00:00.457Z,42.00
2022-08-17T04:01:00.412Z,42.00
2022-08-17T04:02:03.146Z,42.00
2022-08-17T04:03:00.288Z,42.00
2022-08-17T04:04:00.268Z,42.00
2022-08-17T04:05:00.303Z,42.00
2022-08-17T04:06:00.289Z,42.00
2022-08-17T04:07:00.292Z,42.00
2022-08-17T04:08:00.269Z,42.40
2022-08-17T04:09:00.265Z,42.40
2022-08-17T04:10:00.323Z,42.40
2022-08-17T04:11:00.684Z,42.40
2022-08-17T04:12:02.449Z,42.40
2022-08-17T04:13:00.329Z,42.40
2022-08-17T04:14:00.262Z,42.40
2022-08-17T04:15:00.263Z,42.40
2022-08-17T04:16:00.263Z,42.40
2022-08-17T04:17:00.267Z,42.40
2022-08-17T04:18:00.387Z,42.40
2022-08-17T04:19:00.620Z,42.40
2022-08-17T04:20:00.308Z,42.40
2022-08-17T04:21:00.330Z,42.40
2022-08-17T04:22:00.307Z,42.40
2022-08-17T04:23:01.844Z,42.40
2022-08-17T04:24:00.396Z,42.40
2022-08-17T04:25:01.829Z,42.40
2022-08-17T04:26:00.267Z,42.40
2022-08-17T04:27:00.267Z,42.40
2022-08-17T04:28:00.305Z,42.40
2022-08-17T04:29:00.256Z,42.40
2022-08-17T04:30:00.898Z,42.40
2022-08-17T04:31:00.418Z,42.40
2022-08-17T04:32:01.046Z,42.40
2022-08-17T04:33:07.087Z,42.40
2022-08-17T04:34:00.353Z,42.40
2022-08-17T04:35:00.300Z,42.40
2022-08-17T04:36:01.333Z,42.40
2022-08-17T04:37:00.268Z,42.40
2022-08-17T04:38:00.265Z,49.30
2022-08-17T04:39:00.759Z,49.30
2022-08-17T04:40:03.925Z,49.30
2022-08-17T04:41:00.985Z,49.30
2022-08-17T04:42:00.279Z,49.30
2022-08-17T04:43:02.820Z,49.30
2022-08-17T04:44:00.606Z,49.30
2022-08-17T04:45:01.698Z,49.30
2022-08-17T04:46:01.730Z,49.30
2022-08-17T04:47:00.358Z,49.30
2022-08-17T04:48:00.274Z,49.30
2022-08-17T04:49:02.236Z,49.30
2022-08-17T04:50:00.380Z,49.30
2022-08-17T04:51:00.619Z,49.30
2022-08-17T04:52:04.415Z,49.30
2022-08-17T04:53:00.702Z,49.30
2022-08-17T04:54:03.337Z,49.30
2022-08-17T04:55:03.351Z,49.30
2022-08-17T04:56:00.309Z,49.30
2022-08-17T04:57:00.283Z,49.30
2022-08-17T04:58:00.314Z,49.30
2022-08-17T04:59:02.066Z,49.30
2022-08-17T05:00:00.391Z,49.30
2022-08-17T05:01:00.395Z,49.30
2022-08-17T05:02:00.310Z,49.30
2022-08-17T05:03:00.263Z,49.30
2022-08-17T05:04:18.385Z,49.30
2022-08-17T05:05:00.311Z,49.30
2022-08-17T05:06:00.424Z,49.30
2022-08-17T05:07:00.267Z,49.30
2022-08-17T05:08:01.349Z,53.40
2022-08-17T05:09:00.279Z,53.40
2022-08-17T05:10:00.293Z,53.40
2022-08-17T05:11:00.324Z,53.40
2022-08-17T05:12:00.834Z,53.40
2022-08-17T05:13:05.280Z,53.40
2022-08-17T05:14:00.351Z,53.40
2022-08-17T05:15:00.303Z,53.40
2022-08-17T05:16:01.492Z,53.40
2022-08-17T05:17:00.520Z,53.40
2022-08-17T05:18:00.396Z,53.40
2022-08-17T05:19:00.288Z,53.40
2022-08-17T05:20:00.261Z,53.40
2022-08-17T05:21:01.202Z,53.40
2022-08-17T05:22:03.125Z,53.40
2022-08-17T05:23:01.532Z,53.40
2022-08-17T05:24:00.290Z,53.40
2022-08-17T05:25:01.864Z,53.40
2022-08-17T05:26:00.313Z,53.40
2022-08-17T05:27:06.293Z,53.40
2022-08-17T05:28:00.292Z,53.40
2022-08-17T05:29:02.482Z,53.40
2022-08-17T05:30:00.311Z,53.40
2022-08-17T05:31:01.245Z,53.40
2022-08-17T05:32:38.457Z,53.40
2022-08-17T05:33:00.263Z,53.40
2022-08-17T05:34:00.267Z,53.40
2022-08-17T05:35:00.632Z,53.40
2022-08-17T05:36:01.032Z,53.40
2022-08-17T05:37:00.270Z,53.40
2022-08-17T05:38:00.685Z,41.10
2022-08-17T05:39:00.284Z,41.10
2022-08-17T05:40:00.477Z,41.10
2022-08-17T05:41:01.694Z,41.10
2022-08-17T05:42:00.956Z,41.10
2022-08-17T05:43:10.168Z,41.10
2022-08-17T05:44:00.276Z,41.10
2022-08-17T05:45:00.288Z,41.10
2022-08-17T05:46:04.167Z,41.10
2022-08-17T05:47:00.812Z,41.10
2022-08-17T05:48:00.323Z,41.10
2022-08-17T05:49:01.849Z,41.10
2022-08-17T05:50:00.514Z,41.10
2022-08-17T05:51:10.170Z,41.10
2022-08-17T05:52:08.154Z,41.10
2022-08-17T05:53:00.258Z,41.10
2022-08-17T05:54:10.183Z,41.10
2022-08-17T05:55:00.253Z,41.10
2022-08-17T05:56:03.546Z,41.10
2022-08-17T05:57:10.204Z,41.10
2022-08-17T05:58:10.178Z,41.10
2022-08-17T05:59:10.180Z,41.10
2022-08-17T06:00:07.750Z,41.10
2022-08-17T06:01:03.636Z,41.10
2022-08-17T06:02:10.195Z,41.10
2022-08-17T06:03:10.171Z,41.10
2022-08-17T06:04:10.170Z,41.10
2022-08-17T06:05:09.304Z,41.10
2022-08-17T06:06:10.175Z,41.10
2022-08-17T06:07:08.876Z,41.10
2022-08-17T06:08:10.196Z,34.10
2022-08-17T06:09:10.174Z,34.10
2022-08-17T06:10:00.250Z,34.10
2022-08-17T06:11:01.280Z,34.10
2022-08-17T06:12:00.251Z,34.10
2022-08-17T06:13:03.549Z,34.10
2022-08-17T06:14:10.180Z,34.10
2022-08-17T06:15:01.267Z,34.10
2022-08-17T06:16:01.720Z,34.10
2022-08-17T06:17:03.373Z,34.10
2022-08-17T06:18:02.899Z,34.10
2022-08-17T06:19:05.262Z,34.10
2022-08-17T06:20:02.994Z,34.10
2022-08-17T06:21:02.075Z,34.10
2022-08-17T06:22:01.354Z,34.10
2022-08-17T06:23:03.469Z,34.10
2022-08-17T06:24:06.044Z,34.10
2022-08-17T06:25:03.469Z,34.10
2022-08-17T06:26:04.801Z,34.10
2022-08-17T06:27:10.210Z,34.10
2022-08-17T06:28:03.575Z,34.10
2022-08-17T06:29:02.578Z,34.10
2022-08-17T06:30:10.201Z,34.10
2022-08-17T06:31:04.652Z,34.10
2022-08-17T06:32:00.804Z,34.10
2022-08-17T06:33:04.768Z,34.10
2022-08-17T06:34:01.574Z,34.10
2022-08-17T06:35:01.275Z,34.10
2022-08-17T06:36:09.600Z,34.10
2022-08-17T06:37:10.335Z,34.10
2022-08-17T06:38:07.954Z,27.60
2022-08-17T06:39:10.212Z,27.60
2022-08-17T06:40:00.392Z,27.60
2022-08-17T06:41:03.530Z,27.60
2022-08-17T06:44:10.213Z,27.60
2022-08-17T06:45:10.227Z,27.60
2022-08-17T06:46:05.870Z,27.60
2022-08-17T06:47:10.170Z,27.60
2022-08-17T06:48:05.933Z,27.60
2022-08-17T06:49:07.716Z,27.60
2022-08-17T06:50:10.210Z,27.60
2022-08-17T06:51:05.101Z,27.60
2022-08-17T06:52:06.945Z,27.60
2022-08-17T06:53:07.696Z,27.60
2022-08-17T06:54:10.167Z,27.60
2022-08-17T06:55:06.473Z,27.60
2022-08-17T06:56:04.344Z,27.60
2022-08-17T06:57:10.205Z,27.60
2022-08-17T06:58:01.863Z,27.60
2022-08-17T06:59:00.799Z,27.60
2022-08-17T07:00:05.273Z,27.60
2022-08-17T07:01:07.257Z,27.60
2022-08-17T07:02:02.313Z,27.60
2022-08-17T07:03:04.813Z,27.60
2022-08-17T07:04:12.202Z,27.60
2022-08-17T07:05:00.320Z,27.60
2022-08-17T07:06:04.350Z,27.60
2022-08-17T07:07:03.712Z,27.60
2022-08-17T07:08:03.424Z,28.50
2022-08-17T07:09:02.911Z,28.50
2022-08-17T07:10:00.361Z,28.50
2022-08-17T07:11:01.896Z,28.50
2022-08-17T07:12:04.479Z,28.50
2022-08-17T07:13:07.328Z,28.50
2022-08-17T07:14:03.550Z,28.50
2022-08-17T07:15:06.861Z,28.50
2022-08-17T07:16:05.877Z,28.50
2022-08-17T07:17:01.660Z,28.50
2022-08-17T07:18:00.609Z,28.50
2022-08-17T07:19:00.304Z,28.50
2022-08-17T07:20:02.982Z,28.50
2022-08-17T07:21:07.450Z,28.50
2022-08-17T07:22:07.731Z,28.50
2022-08-17T07:23:05.361Z,28.50
2022-08-17T07:24:05.606Z,28.50
2022-08-17T07:25:02.934Z,28.50
2022-08-17T07:26:08.136Z,28.50
2022-08-17T07:27:08.271Z,28.50
2022-08-17T07:28:01.661Z,28.50
2022-08-17T07:29:00.757Z,28.50
2022-08-17T07:30:00.257Z,28.50
2022-08-17T07:31:02.120Z,28.50
2022-08-17T07:32:00.279Z,28.50
2022-08-17T07:33:06.019Z,28.50
2022-08-17T07:34:05.500Z,28.50
2022-08-17T07:35:03.930Z,28.50
2022-08-17T07:36:00.297Z,28.50
2022-08-17T07:37:01.193Z,28.50
2022-08-17T07:38:24.196Z,23.20
2022-08-17T07:39:01.318Z,23.20
2022-08-17T07:40:16.127Z,23.20
2022-08-17T07:41:05.615Z,23.20
2022-08-17T07:42:01.599Z,23.20
2022-08-17T07:43:01.430Z,23.20
2022-08-17T07:44:01.764Z,23.20
2022-08-17T07:45:01.370Z,23.20
2022-08-17T07:46:03.105Z,23.20
2022-08-17T07:47:00.427Z,23.20
2022-08-17T07:48:00.409Z,23.20
2022-08-17T07:49:00.237Z,23.20
2022-08-17T07:50:00.420Z,23.20
2022-08-17T07:51:00.280Z,23.20
2022-08-17T07:52:24.245Z,23.20
2022-08-17T07:53:10.156Z,23.20
2022-08-17T07:54:14.097Z,23.20
2022-08-17T07:55:10.175Z,23.20
2022-08-17T07:56:00.251Z,23.20
2022-08-17T07:57:07.662Z,23.20
2022-08-17T07:58:00.289Z,23.20
2022-08-17T07:59:05.348Z,23.20
2022-08-17T08:00:01.437Z,23.20
2022-08-17T08:01:04.502Z,23.20
2022-08-17T08:02:10.331Z,23.20
2022-08-17T08:03:03.294Z,23.20
2022-08-17T08:04:00.391Z,23.20
2022-08-17T08:05:02.502Z,23.20
2022-08-17T08:06:01.438Z,23.20
2022-08-17T08:07:01.670Z,23.20
2022-08-17T08:08:02.461Z,18.90
2022-08-17T08:09:00.301Z,18.90
2022-08-17T08:10:09.478Z,18.90
2022-08-17T08:11:02.777Z,18.90
2022-08-17T08:12:10.184Z,18.90
2022-08-17T08:13:04.888Z,18.90
2022-08-17T08:14:10.172Z,18.90
2022-08-17T08:15:10.186Z,18.90
2022-08-17T08:16:10.168Z,18.90
2022-08-17T08:17:01.833Z,18.90
2022-08-17T08:18:01.904Z,18.90
2022-08-17T08:19:00.644Z,18.90
2022-08-17T08:20:44.654Z,18.90
2022-08-17T08:21:02.916Z,18.90
2022-08-17T08:22:07.015Z,18.90
2022-08-17T08:23:10.197Z,18.90
2022-08-17T08:24:10.158Z,18.90
2022-08-17T08:25:06.702Z,18.90
2022-08-17T08:26:01.270Z,18.90
2022-08-17T08:27:03.631Z,18.90
2022-08-17T08:28:09.094Z,18.90
2022-08-17T08:29:10.168Z,18.90
2022-08-17T08:30:05.337Z,18.90
2022-08-17T08:31:06.566Z,18.90
2022-08-17T08:32:07.702Z,18.90
2022-08-17T08:33:10.173Z,18.90
2022-08-17T08:34:03.535Z,18.90
2022-08-17T08:35:10.201Z,18.90
2022-08-17T08:36:06.428Z,18.90
2022-08-17T08:37:16.494Z,18.90
2022-08-17T08:38:10.169Z,15.40
2022-08-17T08:39:07.779Z,15.40
2022-08-17T08:40:07.991Z,15.40
2022-08-17T08:41:00.262Z,15.40
2022-08-17T08:42:09.673Z,15.40
2022-08-17T08:43:01.272Z,15.40
2022-08-17T08:44:07.807Z,15.40
2022-08-17T08:46:10.178Z,15.40
2022-08-17T08:47:03.649Z,15.40
2022-08-17T08:48:05.459Z,15.40
2022-08-17T08:49:09.976Z,15.40
2022-08-17T08:50:07.953Z,15.40
2022-08-17T08:51:10.177Z,15.40
2022-08-17T08:52:02.291Z,15.40
2022-08-17T08:53:00.254Z,15.40
2022-08-17T08:54:05.490Z,15.40
2022-08-17T08:55:07.580Z,15.40
2022-08-17T08:56:05.514Z,15.40
2022-08-17T08:57:25.467Z,15.40
2022-08-17T08:58:04.065Z,15.40
2022-08-17T08:59:06.500Z,15.40
2022-08-17T09:00:06.939Z,15.40
2022-08-17T09:01:04.830Z,15.40
2022-08-17T09:02:10.178Z,15.40
2022-08-17T09:03:03.574Z,15.40
2022-08-17T09:04:24.293Z,15.40
2022-08-17T09:05:14.691Z,15.40
2022-08-17T09:06:33.578Z,15.40
2022-08-17T09:07:05.229Z,15.40
2022-08-17T09:08:06.205Z,16.80
2022-08-17T09:09:09.556Z,16.80
2022-08-17T09:10:10.056Z,16.80
2022-08-17T09:11:07.734Z,16.80
2022-08-17T09:12:07.820Z,16.80
2022-08-17T09:13:09.165Z,16.80
2022-08-17T09:14:07.697Z,16.80
2022-08-17T09:15:04.583Z,16.80
2022-08-17T09:16:05.684Z,16.80
2022-08-17T09:17:10.183Z,16.80
2022-08-17T09:19:02.303Z,16.80
2022-08-17T09:19:10.175Z,16.80
2022-08-17T09:20:04.850Z,16.80
2022-08-17T09:21:01.831Z,16.80
2022-08-17T09:22:05.048Z,16.80
2022-08-17T09:23:00.257Z,16.80
2022-08-17T09:24:05.860Z,16.80
2022-08-17T09:25:06.330Z,16.80
2022-08-17T09:26:10.165Z,16.80
2022-08-17T09:27:07.206Z,16.80
2022-08-17T09:28:00.742Z,16.80
2022-08-17T09:29:02.426Z,16.80
2022-08-17T09:30:03.427Z,16.80
2022-08-17T09:31:02.616Z,16.80
2022-08-17T09:32:02.681Z,16.80
2022-08-17T09:33:03.289Z,16.80
2022-08-17T09:34:04.354Z,16.80
2022-08-17T09:35:04.181Z,16.80
2022-08-17T09:36:02.538Z,16.80
2022-08-17T09:37:10.180Z,16.80
2022-08-17T09:38:03.904Z,18.90
2022-08-17T09:39:10.195Z,18.90
2022-08-17T09:40:10.266Z,18.90
2022-08-17T09:41:10.165Z,18.90
2022-08-17T09:42:10.162Z,18.90
2022-08-17T09:43:05.287Z,18.90
2022-08-17T09:44:04.653Z,18.90
2022-08-17T09:45:10.188Z,18.90
2022-08-17T09:46:02.902Z,18.90
2022-08-17T09:47:03.580Z,18.90
2022-08-17T09:48:06.077Z,18.90
2022-08-17T09:49:10.172Z,18.90
2022-08-17T09:50:04.889Z,18.90
2022-08-17T09:51:04.481Z,18.90
2022-08-17T09:52:02.313Z,18.90
2022-08-17T09:53:00.397Z,18.90
2022-08-17T09:54:15.129Z,18.90
2022-08-17T09:55:00.464Z,18.90
2022-08-17T09:56:10.192Z,18.90
2022-08-17T09:57:29.072Z,18.90
2022-08-17T09:58:00.260Z,18.90
2022-08-17T09:59:00.297Z,18.90
2022-08-17T10:00:10.203Z,18.90
2022-08-17T10:01:09.705Z,18.90
2022-08-17T10:02:10.177Z,18.90
2022-08-17T10:03:03.575Z,18.90
2022-08-17T10:04:10.172Z,18.90
2022-08-17T10:05:00.254Z,18.90
2022-08-17T10:06:06.577Z,18.90
2022-08-17T10:07:06.112Z,18.90
2022-08-17T10:08:07.367Z,13.60
2022-08-17T10:09:10.162Z,13.60
2022-08-17T10:10:14.068Z,13.60
2022-08-17T10:11:05.656Z,13.60
2022-08-17T10:12:04.383Z,13.60
2022-08-17T10:13:09.758Z,13.60
2022-08-17T10:14:36.914Z,13.60
2022-08-17T10:15:10.171Z,13.60
2022-08-17T10:16:10.169Z,13.60
2022-08-17T10:17:01.281Z,13.60
2022-08-17T10:18:09.128Z,13.60
2022-08-17T10:19:09.152Z,13.60
2022-08-17T10:20:10.187Z,13.60
2022-08-17T10:21:03.704Z,13.60
2022-08-17T10:22:32.473Z,13.60
2022-08-17T10:23:02.811Z,13.60
2022-08-17T10:24:10.182Z,13.60
2022-08-17T10:25:22.470Z,13.60
2022-08-17T10:26:06.844Z,13.60
2022-08-17T10:27:02.512Z,13.60
2022-08-17T10:28:04.082Z,13.60
2022-08-17T10:29:05.324Z,13.60
2022-08-17T10:30:01.704Z,13.60
2022-08-17T10:31:31.047Z,13.60
2022-08-17T10:32:05.200Z,13.60
2022-08-17T10:33:03.593Z,13.60
2022-08-17T10:34:10.172Z,13.60
2022-08-17T10:35:01.311Z,13.60
2022-08-17T10:36:10.885Z,13.60
2022-08-17T10:37:01.284Z,13.60
2022-08-17T10:38:10.162Z,11.80
2022-08-17T10:39:08.337Z,11.80
2022-08-17T10:40:01.336Z,11.80
2022-08-17T10:41:03.926Z,11.80
2022-08-17T10:42:03.880Z,11.80
2022-08-17T10:43:10.174Z,11.80
2022-08-17T10:44:38.758Z,11.80
2022-08-17T10:45:05.809Z,11.80
2022-08-17T10:46:27.910Z,11.80
2022-08-17T10:47:05.225Z,11.80
2022-08-17T10:48:10.450Z,11.80
2022-08-17T10:49:10.169Z,11.80
2022-08-17T10:50:10.277Z,11.80
2022-08-17T10:51:03.145Z,11.80
2022-08-17T10:52:02.644Z,11.80
2022-08-17T10:53:00.503Z,11.80
2022-08-17T10:54:00.298Z,11.80
2022-08-17T10:55:00.268Z,11.80
2022-08-17T10:56:10.199Z,11.80
2022-08-17T10:57:00.730Z,11.80
2022-08-17T10:58:10.211Z,11.80
2022-08-17T10:59:00.300Z,11.80
2022-08-17T11:00:03.727Z,11.80
2022-08-17T11:01:00.357Z,11.80
2022-08-17T11:02:10.174Z,11.80
2022-08-17T11:03:00.773Z,11.80
2022-08-17T11:04:10.196Z,11.80
2022-08-17T11:05:07.609Z,11.80
2022-08-17T11:06:01.283Z,11.80
2022-08-17T11:07:00.270Z,11.80
2022-08-17T11:08:07.769Z,11.00
2022-08-17T11:09:09.588Z,11.00
2022-08-17T11:10:10.304Z,11.00
2022-08-17T11:11:07.724Z,11.00
2022-08-17T11:12:10.208Z,11.00
2022-08-17T11:13:05.628Z,11.00
2022-08-17T11:14:10.199Z,11.00
2022-08-17T11:15:03.544Z,11.00
2022-08-17T11:16:10.191Z,11.00
2022-08-17T11:17:00.250Z,11.00
2022-08-17T11:18:00.281Z,11.00
2022-08-17T11:19:10.210Z,11.00
2022-08-17T11:20:10.222Z,11.00
2022-08-17T11:21:08.379Z,11.00
2022-08-17T11:22:10.197Z,11.00
2022-08-17T11:23:10.190Z,11.00
2022-08-17T11:24:00.288Z,11.00
2022-08-17T11:25:10.246Z,11.00
2022-08-17T11:26:01.856Z,11.00
2022-08-17T11:27:12.317Z,11.00
2022-08-17T11:28:10.182Z,11.00
2022-08-17T11:29:06.499Z,11.00
2022-08-17T11:30:03.745Z,11.00
2022-08-17T11:31:07.501Z,11.00
2022-08-17T11:32:04.192Z,11.00
2022-08-17T11:33:10.224Z,11.00
2022-08-17T11:34:02.071Z,11.00
2022-08-17T11:35:10.232Z,11.00
2022-08-17T11:36:10.213Z,11.00
2022-08-17T11:37:07.788Z,11.00
2022-08-17T11:38:14.048Z,14.50
2022-08-17T11:39:03.532Z,14.50
2022-08-17T11:40:00.378Z,14.50
2022-08-17T11:41:10.217Z,14.50
2022-08-17T11:42:03.773Z,14.50
2022-08-17T11:43:01.292Z,14.50
2022-08-17T11:44:10.235Z,14.50
2022-08-17T11:45:07.849Z,14.50
2022-08-17T11:46:00.299Z,14.50
2022-08-17T11:47:10.234Z,14.50
2022-08-17T11:48:27.987Z,14.50
2022-08-17T11:49:07.048Z,14.50
2022-08-17T11:50:10.242Z,14.50
2022-08-17T11:51:10.200Z,14.50
2022-08-17T11:52:00.254Z,14.50
2022-08-17T11:53:00.355Z,14.50
2022-08-17T11:54:32.319Z,14.50
2022-08-17T11:55:24.175Z,14.50
2022-08-17T11:56:01.629Z,14.50
2022-08-17T11:57:10.211Z,14.50
2022-08-17T11:58:02.101Z,14.50
2022-08-17T11:59:00.320Z,14.50
2022-08-17T12:00:04.457Z,14.50
2022-08-17T12:01:01.411Z,14.50
2022-08-17T12:02:01.184Z,14.50
2022-08-17T12:03:10.272Z,14.50
2022-08-17T12:04:10.260Z,14.50
2022-08-17T12:05:01.287Z,14.50
2022-08-17T12:06:10.198Z,14.50
2022-08-17T12:07:10.203Z,14.50
2022-08-17T12:08:00.287Z,10.80
2022-08-17T12:09:08.118Z,10.80
2022-08-17T12:10:00.663Z,10.80
2022-08-17T12:11:10.214Z,10.80
2022-08-17T12:12:12.946Z,10.80
2022-08-17T12:14:00.550Z,10.80
2022-08-17T12:15:10.502Z,10.80
2022-08-17T12:16:00.519Z,10.80
2022-08-17T12:17:05.626Z,10.80
2022-08-17T12:18:00.336Z,10.80
2022-08-17T12:19:02.231Z,10.80
2022-08-17T12:20:10.193Z,10.80
2022-08-17T12:21:10.185Z,10.80
2022-08-17T12:22:03.449Z,10.80
2022-08-17T12:23:05.127Z,10.80
2022-08-17T12:24:10.182Z,10.80
2022-08-17T12:25:06.805Z,10.80
2022-08-17T12:26:10.180Z,10.80
2022-08-17T12:27:01.629Z,10.80
2022-08-17T12:28:05.728Z,10.80
2022-08-17T12:29:02.828Z,10.80
2022-08-17T12:30:03.623Z,10.80
2022-08-17T12:31:01.352Z,10.80
2022-08-17T12:32:00.432Z,10.80
2022-08-17T12:33:00.466Z,10.80
2022-08-17T12:34:01.579Z,10.80
2022-08-17T12:35:01.480Z,10.80
2022-08-17T12:36:05.373Z,10.80
2022-08-17T12:37:01.669Z,10.80
2022-08-17T12:38:01.432Z,9.60
2022-08-17T12:39:13.668Z,9.60
2022-08-17T12:40:00.397Z,9.60
2022-08-17T12:41:01.283Z,9.60
2022-08-17T12:42:02.599Z,9.60
2022-08-17T12:43:01.694Z,9.60
2022-08-17T12:44:02.551Z,9.60
2022-08-17T12:45:00.307Z,9.60
2022-08-17T12:46:00.316Z,9.60
2022-08-17T12:47:01.922Z,9.60
2022-08-17T12:48:02.253Z,9.60
2022-08-17T12:49:10.174Z,9.60
2022-08-17T12:50:05.964Z,9.60
2022-08-17T12:51:02.457Z,9.60
2022-08-17T12:52:10.228Z,9.60
2022-08-17T12:53:02.442Z,9.60
2022-08-17T12:54:00.832Z,9.60
2022-08-17T12:55:10.222Z,9.60
2022-08-17T12:56:00.860Z,9.60
2022-08-17T12:57:04.515Z,9.60